Grand Chain, Illinois
Current Conditions -  °F | °C
As of 6:15 AM on Friday 19 Dec 2014 (Local Time) from KM30 Reporting Station
Haze Haze  
Wind Chill: 33°   Ceiling: 4000
Heat Index: 33°   Visibility: 5mi
Dew Point: 31°   Wind: 3mph
Humidity: 93%   Direction: 50°NE
Pressure: 30.27"   Gusts: NA
Location:  37.24°N, 88.89°W
Report Text: KM30 191215Z AUTO 05003KT 5SM BR OVC040 01/00 A3027 RMK AO2 T00051005
Loading
Personal Weather Stations






























Interactive Weather Map New forecast layout! Learn more

10-Day Weather Forecast

Advertisements
Track Severe Weather on mobile